createdAt,value
2023-01-28T00:01:29.821Z,0.24
2023-01-28T00:06:35.799Z,0.22
2023-01-28T00:11:43.786Z,0.21
2023-01-28T00:16:48.056Z,0.21
2023-01-28T00:21:56.924Z,0.20
2023-01-28T00:26:59.741Z,0.21
2023-01-28T00:32:02.623Z,0.21
2023-01-28T00:37:27.859Z,0.24
2023-01-28T00:42:46.767Z,0.19
2023-01-28T00:47:49.268Z,0.18
2023-01-28T00:52:55.092Z,0.18
2023-01-28T00:58:17.661Z,0.17
2023-01-28T01:03:26.367Z,0.17
2023-01-28T01:08:41.099Z,0.18
2023-01-28T01:13:58.130Z,0.18
2023-01-28T01:19:01.484Z,0.19
2023-01-28T01:24:07.008Z,0.19
2023-01-28T01:29:09.944Z,0.21
2023-01-28T01:34:19.762Z,0.19
2023-01-28T01:39:24.701Z,0.16
2023-01-28T01:45:18.620Z,0.15
2023-01-28T01:50:36.688Z,0.14
2023-01-28T01:55:43.557Z,0.11
2023-01-28T02:00:49.083Z,0.07
2023-01-28T02:05:54.983Z,0.02
2023-01-28T02:11:05.401Z,-0.00
2023-01-28T02:16:09.399Z,-0.02
2023-01-28T02:21:51.230Z,-0.04
2023-01-28T02:27:25.300Z,-0.04
2023-01-28T02:32:54.191Z,-0.03
2023-01-28T02:38:19.476Z,-0.02
2023-01-28T02:43:40.352Z,-0.03
2023-01-28T02:48:43.103Z,-0.01
2023-01-28T02:54:12.910Z,-0.04
2023-01-28T02:59:31.398Z,-0.04
2023-01-28T03:05:26.687Z,-0.09
2023-01-28T03:10:29.786Z,-0.13
2023-01-28T03:16:00.047Z,-0.15
2023-01-28T03:21:43.933Z,-0.15
2023-01-28T03:27:33.752Z,-0.16
2023-01-28T03:33:06.526Z,-0.18
2023-01-28T03:38:23.791Z,-0.20
2023-01-28T03:43:42.829Z,-0.22
2023-01-28T03:48:47.960Z,-0.22
2023-01-28T03:53:54.328Z,-0.21
2023-01-28T03:59:08.373Z,-0.21
2023-01-28T04:04:22.900Z,-0.21
2023-01-28T04:09:29.770Z,-0.20
2023-01-28T04:14:53.225Z,-0.19
2023-01-28T04:20:06.952Z,-0.23
2023-01-28T04:25:10.148Z,-0.29
2023-01-28T04:30:12.863Z,-0.37
2023-01-28T04:35:32.750Z,-0.40
2023-01-28T04:41:24.387Z,-0.43
2023-01-28T04:46:33.275Z,-0.46
2023-01-28T04:51:49.143Z,-0.50
2023-01-28T04:57:11.139Z,-0.52
2023-01-28T05:02:19.086Z,-0.57
2023-01-28T05:07:35.876Z,-0.60
2023-01-28T05:12:50.223Z,-0.62
2023-01-28T05:18:00.905Z,-0.64
2023-01-28T05:23:16.391Z,-0.64
2023-01-28T05:28:29.363Z,-0.67
2023-01-28T05:33:42.606Z,-0.70
2023-01-28T05:38:47.570Z,-0.74
2023-01-28T05:43:50.613Z,-0.76
2023-01-28T05:49:08.640Z,-0.78
2023-01-28T05:54:58.613Z,-0.82
2023-01-28T06:00:16.177Z,-0.83
2023-01-28T06:05:32.034Z,-0.83
2023-01-28T06:10:47.448Z,-0.82
2023-01-28T06:15:54.995Z,-0.81
2023-01-28T06:21:44.018Z,-0.81
2023-01-28T06:26:47.825Z,-0.82
2023-01-28T06:31:53.493Z,-0.86
2023-01-28T06:37:05.090Z,-0.91
2023-01-28T06:42:09.678Z,-0.90
2023-01-28T06:47:12.344Z,-0.90
2023-01-28T06:52:15.269Z,-0.88
2023-01-28T06:57:17.764Z,-0.84
2023-01-28T07:02:20.652Z,-0.79
2023-01-28T07:07:31.843Z,-0.74
2023-01-28T07:12:37.206Z,-0.72
2023-01-28T07:17:43.267Z,-0.67
2023-01-28T07:22:56.126Z,-0.59
2023-01-28T07:27:58.608Z,-0.52
2023-01-28T07:33:01.686Z,-0.46
2023-01-28T07:38:06.443Z,-0.35
2023-01-28T07:43:14.359Z,-0.25
2023-01-28T07:48:24.251Z,-0.17
2023-01-28T07:53:34.419Z,-0.10
2023-01-28T07:58:39.354Z,-0.05
2023-01-28T08:03:46.923Z,-0.02
2023-01-28T08:08:51.548Z,0.05
2023-01-28T08:13:53.765Z,0.14
2023-01-28T08:18:58.855Z,0.20
2023-01-28T08:24:03.324Z,0.29
2023-01-28T08:29:06.327Z,0.39
2023-01-28T08:34:14.470Z,0.44
2023-01-28T08:39:25.849Z,0.44
2023-01-28T08:44:37.043Z,0.48
2023-01-28T08:49:42.650Z,0.54
2023-01-28T08:54:45.124Z,0.62
2023-01-28T08:59:53.256Z,0.70
2023-01-28T09:04:58.616Z,0.79
2023-01-28T09:10:01.243Z,0.87
2023-01-28T09:15:05.108Z,0.94
2023-01-28T09:20:33.910Z,1.06
2023-01-28T09:25:37.049Z,1.12
2023-01-28T09:30:42.867Z,1.16
2023-01-28T09:35:45.556Z,1.20
2023-01-28T09:40:51.428Z,1.24
2023-01-28T09:45:58.236Z,1.31
2023-01-28T09:51:01.863Z,1.33
2023-01-28T09:56:14.395Z,1.36
2023-01-28T10:01:19.973Z,1.42
2023-01-28T10:06:51.081Z,1.54
2023-01-28T10:12:37.374Z,1.70
2023-01-28T10:17:46.130Z,1.82
2023-01-28T10:23:02.712Z,1.92
2023-01-28T10:28:21.091Z,1.93
2023-01-28T10:33:28.969Z,2.00
2023-01-28T10:38:31.923Z,1.98
2023-01-28T10:43:37.676Z,1.98
2023-01-28T10:48:47.360Z,2.02
2023-01-28T10:53:49.682Z,2.13
2023-01-28T10:59:03.169Z,2.30
2023-01-28T11:04:07.579Z,2.38
2023-01-28T11:09:22.401Z,2.36
2023-01-28T11:14:28.104Z,2.45
2023-01-28T11:19:39.019Z,2.45
2023-01-28T11:24:43.147Z,2.49
2023-01-28T11:29:46.543Z,2.62
2023-01-28T11:34:51.588Z,2.63
2023-01-28T11:40:24.313Z,2.58
2023-01-28T11:45:42.426Z,2.56
2023-01-28T11:50:58.361Z,2.58
2023-01-28T11:56:45.485Z,2.59
2023-01-28T12:02:21.489Z,2.71
2023-01-28T12:07:36.094Z,2.77
2023-01-28T12:12:45.703Z,2.79
2023-01-28T12:17:56.760Z,2.85
2023-01-28T12:23:24.609Z,2.85
2023-01-28T12:28:41.734Z,2.79
2023-01-28T12:34:38.704Z,2.74
2023-01-28T12:40:33.693Z,2.70
2023-01-28T12:45:51.849Z,2.70
2023-01-28T12:51:02.423Z,2.66
2023-01-28T12:56:16.944Z,2.57
2023-01-28T13:01:25.861Z,2.44
2023-01-28T13:06:33.748Z,2.38
2023-01-28T13:11:37.164Z,2.31
2023-01-28T13:16:39.579Z,2.24
2023-01-28T13:21:49.156Z,2.11
2023-01-28T13:26:55.068Z,2.08
2023-01-28T13:32:03.391Z,2.08
2023-01-28T13:37:28.549Z,2.07
2023-01-28T13:42:35.382Z,2.02
2023-01-28T13:47:41.022Z,1.89
2023-01-28T13:52:50.716Z,1.78
2023-01-28T13:58:31.619Z,1.66
2023-01-28T14:03:58.700Z,1.56
2023-01-28T14:09:31.914Z,1.46
2023-01-28T14:15:16.582Z,1.34
2023-01-28T14:20:32.735Z,1.23
2023-01-28T14:26:00.055Z,1.19
2023-01-28T14:31:32.918Z,1.20
2023-01-28T14:36:40.935Z,1.20
2023-01-28T14:41:48.267Z,1.20
2023-01-28T14:47:17.908Z,1.16
2023-01-28T14:52:25.429Z,1.10
2023-01-28T14:57:44.868Z,1.02
2023-01-28T15:02:46.909Z,0.92
2023-01-28T15:07:49.725Z,0.85
2023-01-28T15:13:00.296Z,0.79
2023-01-28T15:18:25.508Z,0.73
2023-01-28T15:23:36.793Z,0.67
2023-01-28T15:28:40.666Z,0.63
2023-01-28T15:33:42.954Z,0.58
2023-01-28T15:38:45.189Z,0.52
2023-01-28T15:43:49.755Z,0.47
2023-01-28T15:49:04.028Z,0.44
2023-01-28T15:54:11.099Z,0.42
2023-01-28T15:59:16.136Z,0.39
2023-01-28T16:04:30.025Z,0.35
2023-01-28T16:09:34.726Z,0.31
2023-01-28T16:14:49.702Z,0.26
2023-01-28T16:19:59.114Z,0.23
2023-01-28T16:25:01.979Z,0.22
2023-01-28T16:30:06.094Z,0.22
2023-01-28T16:35:23.270Z,0.21
2023-01-28T16:40:25.613Z,0.20
2023-01-28T16:45:27.860Z,0.15
2023-01-28T16:50:32.682Z,0.11
2023-01-28T16:55:35.224Z,0.10
2023-01-28T17:00:37.314Z,0.11
2023-01-28T17:05:39.493Z,0.13
2023-01-28T17:10:41.551Z,0.14
2023-01-28T17:15:43.477Z,0.14
2023-01-28T17:20:45.488Z,0.13
2023-01-28T17:25:47.608Z,0.12
2023-01-28T17:30:49.987Z,0.15
2023-01-28T17:35:52.836Z,0.17
2023-01-28T17:40:54.986Z,0.20
2023-01-28T17:45:57.250Z,0.24
2023-01-28T17:50:59.691Z,0.27
2023-01-28T17:56:01.634Z,0.27
2023-01-28T18:01:10.192Z,0.22
2023-01-28T18:06:14.692Z,0.20
2023-01-28T18:11:21.557Z,0.22
2023-01-28T18:16:24.845Z,0.23
2023-01-28T18:21:51.774Z,0.23
2023-01-28T18:26:59.758Z,0.20
2023-01-28T18:32:03.229Z,0.12
2023-01-28T18:37:07.653Z,0.05
2023-01-28T18:42:10.020Z,-0.03
2023-01-28T18:47:12.092Z,-0.09
2023-01-28T18:52:14.677Z,-0.17
2023-01-28T18:57:26.068Z,-0.19
2023-01-28T19:02:28.622Z,-0.22
2023-01-28T19:07:31.725Z,-0.26
2023-01-28T19:12:37.158Z,-0.27
2023-01-28T19:17:39.597Z,-0.29
2023-01-28T19:22:44.402Z,-0.32
2023-01-28T19:27:46.420Z,-0.35
2023-01-28T19:32:48.636Z,-0.37
2023-01-28T19:37:51.017Z,-0.39
2023-01-28T19:42:53.966Z,-0.41
2023-01-28T19:47:59.323Z,-0.40
2023-01-28T19:53:01.493Z,-0.39
2023-01-28T19:58:04.126Z,-0.36
2023-01-28T20:03:08.321Z,-0.31
2023-01-28T20:08:10.886Z,-0.30
2023-01-28T20:13:16.153Z,-0.29
2023-01-28T20:18:18.983Z,-0.32
2023-01-28T20:23:36.081Z,-0.34
2023-01-28T20:28:41.947Z,-0.38
2023-01-28T20:33:49.844Z,-0.40
2023-01-28T20:38:52.044Z,-0.42
2023-01-28T20:43:55.058Z,-0.44
2023-01-28T20:48:59.326Z,-0.45
2023-01-28T20:54:02.014Z,-0.48
2023-01-28T20:59:06.145Z,-0.48
2023-01-28T21:04:10.763Z,-0.49
2023-01-28T21:09:13.086Z,-0.50
2023-01-28T21:14:17.223Z,-0.51
2023-01-28T21:19:21.847Z,-0.51
2023-01-28T21:24:24.236Z,-0.52
2023-01-28T21:29:26.830Z,-0.53
2023-01-28T21:34:33.261Z,-0.56
2023-01-28T21:39:35.810Z,-0.57
2023-01-28T21:44:37.710Z,-0.57
2023-01-28T21:49:40.468Z,-0.59
2023-01-28T21:54:45.492Z,-0.62
2023-01-28T21:59:47.801Z,-0.64
2023-01-28T22:04:50.571Z,-0.66
2023-01-28T22:09:58.214Z,-0.73
2023-01-28T22:15:10.625Z,-0.85
2023-01-28T22:20:13.887Z,-1.01
2023-01-28T22:25:16.894Z,-1.11
2023-01-28T22:30:19.214Z,-1.17
2023-01-28T22:35:24.094Z,-1.22
2023-01-28T22:40:26.065Z,-1.28
2023-01-28T22:45:28.919Z,-1.32
2023-01-28T22:50:31.255Z,-1.33
2023-01-28T22:55:33.743Z,-1.36
2023-01-28T23:00:35.862Z,-1.38
2023-01-28T23:05:38.549Z,-1.42
2023-01-28T23:10:47.133Z,-1.47
2023-01-28T23:16:08.981Z,-1.51
2023-01-28T23:21:40.609Z,-1.53
2023-01-28T23:26:42.545Z,-1.56
2023-01-28T23:31:47.415Z,-1.59
2023-01-28T23:36:50.617Z,-1.64
2023-01-28T23:41:53.269Z,-1.66
2023-01-28T23:46:56.343Z,-1.71
2023-01-28T23:51:58.645Z,-1.78
2023-01-28T23:57:01.195Z,-1.83
